sensor_id;sensor_type;location;lat;lon;timestamp;temperature;humidity
67868;SHT31;54672;46.096;14.470;2023-01-28T00:00:30;-0.35;90.98
67868;SHT31;54672;46.096;14.470;2023-01-28T00:02:56;-0.38;91.22
67868;SHT31;54672;46.096;14.470;2023-01-28T00:05:21;-0.37;91.20
67868;SHT31;54672;46.096;14.470;2023-01-28T00:07:50;-0.35;90.91
67868;SHT31;54672;46.096;14.470;2023-01-28T00:10:16;-0.37;91.01
67868;SHT31;54672;46.096;14.470;2023-01-28T00:12:42;-0.41;91.08
67868;SHT31;54672;46.096;14.470;2023-01-28T00:15:08;-0.44;91.35
67868;SHT31;54672;46.096;14.470;2023-01-28T00:17:35;-0.55;91.78
67868;SHT31;54672;46.096;14.470;2023-01-28T00:20:02;-0.61;91.88
67868;SHT31;54672;46.096;14.470;2023-01-28T00:22:28;-0.69;92.05
67868;SHT31;54672;46.096;14.470;2023-01-28T00:24:53;-0.75;92.02
67868;SHT31;54672;46.096;14.470;2023-01-28T00:27:18;-0.76;92.17
67868;SHT31;54672;46.096;14.470;2023-01-28T00:29:44;-0.78;92.36
67868;SHT31;54672;46.096;14.470;2023-01-28T00:32:09;-0.75;92.67
67868;SHT31;54672;46.096;14.470;2023-01-28T00:34:35;-0.70;92.74
67868;SHT31;54672;46.096;14.470;2023-01-28T00:37:00;-0.68;92.45
67868;SHT31;54672;46.096;14.470;2023-01-28T00:39:26;-0.62;92.47
67868;SHT31;54672;46.096;14.470;2023-01-28T00:41:52;-0.62;92.14
67868;SHT31;54672;46.096;14.470;2023-01-28T00:44:18;-0.62;91.91
67868;SHT31;54672;46.096;14.470;2023-01-28T00:46:44;-0.58;91.91
67868;SHT31;54672;46.096;14.470;2023-01-28T00:49:09;-0.51;91.94
67868;SHT31;54672;46.096;14.470;2023-01-28T00:51:35;-0.41;91.37
67868;SHT31;54672;46.096;14.470;2023-01-28T00:54:01;-0.41;90.71
67868;SHT31;54672;46.096;14.470;2023-01-28T00:56:27;-0.44;90.86
67868;SHT31;54672;46.096;14.470;2023-01-28T00:58:52;-0.42;91.35
67868;SHT31;54672;46.096;14.470;2023-01-28T01:01:23;-0.37;90.54
67868;SHT31;54672;46.096;14.470;2023-01-28T01:03:49;-0.27;88.81
67868;SHT31;54672;46.096;14.470;2023-01-28T01:06:37;-0.31;88.55
67868;SHT31;54672;46.096;14.470;2023-01-28T01:09:05;-0.38;89.11
67868;SHT31;54672;46.096;14.470;2023-01-28T01:11:31;-0.47;89.81
67868;SHT31;54672;46.096;14.470;2023-01-28T01:13:58;-0.52;89.94
67868;SHT31;54672;46.096;14.470;2023-01-28T01:16:28;-0.54;90.31
67868;SHT31;54672;46.096;14.470;2023-01-28T01:18:54;-0.51;90.41
67868;SHT31;54672;46.096;14.470;2023-01-28T01:21:23;-0.44;90.65
67868;SHT31;54672;46.096;14.470;2023-01-28T01:23:49;-0.44;90.33
67868;SHT31;54672;46.096;14.470;2023-01-28T01:26:15;-0.44;90.48
67868;SHT31;54672;46.096;14.470;2023-01-28T01:28:41;-0.41;90.82
67868;SHT31;54672;46.096;14.470;2023-01-28T01:31:10;-0.39;90.57
67868;SHT31;54672;46.096;14.470;2023-01-28T01:33:36;-0.41;90.46
67868;SHT31;54672;46.096;14.470;2023-01-28T01:36:01;-0.39;90.75
67868;SHT31;54672;46.096;14.470;2023-01-28T01:38:28;-0.38;90.89
67868;SHT31;54672;46.096;14.470;2023-01-28T01:40:57;-0.32;90.47
67868;SHT31;54672;46.096;14.470;2023-01-28T01:43:24;-0.30;90.19
67868;SHT31;54672;46.096;14.470;2023-01-28T01:45:54;-0.34;90.39
67868;SHT31;54672;46.096;14.470;2023-01-28T01:48:22;-0.96;92.01
67868;SHT31;54672;46.096;14.470;2023-01-28T01:50:55;-1.14;93.39
67868;SHT31;54672;46.096;14.470;2023-01-28T01:53:24;-1.10;93.80
67868;SHT31;54672;46.096;14.470;2023-01-28T01:55:53;-1.00;93.54
67868;SHT31;54672;46.096;14.470;2023-01-28T01:58:25;-0.95;93.59
67868;SHT31;54672;46.096;14.470;2023-01-28T02:00:52;-1.04;93.83
67868;SHT31;54672;46.096;14.470;2023-01-28T02:03:22;-1.04;94.03
67868;SHT31;54672;46.096;14.470;2023-01-28T02:05:51;-1.10;94.42
67868;SHT31;54672;46.096;14.470;2023-01-28T02:08:17;-1.07;94.41
67868;SHT31;54672;46.096;14.470;2023-01-28T02:10:48;-1.00;94.39
67868;SHT31;54672;46.096;14.470;2023-01-28T02:13:16;-0.93;94.14
67868;SHT31;54672;46.096;14.470;2023-01-28T02:15:44;-0.88;94.16
67868;SHT31;54672;46.096;14.470;2023-01-28T02:18:10;-0.82;94.08
67868;SHT31;54672;46.096;14.470;2023-01-28T02:30:10;-0.83;93.69
67868;SHT31;54672;46.096;14.470;2023-01-28T02:32:54;-0.96;93.85
67868;SHT31;54672;46.096;14.470;2023-01-28T02:35:30;-1.09;94.41
67868;SHT31;54672;46.096;14.470;2023-01-28T02:38:22;-1.13;94.89
67868;SHT31;54672;46.096;14.470;2023-01-28T02:40:53;-1.14;94.67
67868;SHT31;54672;46.096;14.470;2023-01-28T02:43:39;-1.07;94.82
67868;SHT31;54672;46.096;14.470;2023-01-28T02:55:26;-1.39;95.71
67868;SHT31;54672;46.096;14.470;2023-01-28T02:58:04;-1.41;95.74
67868;SHT31;54672;46.096;14.470;2023-01-28T03:00:46;-1.37;95.87
67868;SHT31;54672;46.096;14.470;2023-01-28T03:03:22;-1.36;95.71
67868;SHT31;54672;46.096;14.470;2023-01-28T03:05:56;-1.37;95.73
67868;SHT31;54672;46.096;14.470;2023-01-28T03:08:57;-1.40;96.20
67868;SHT31;54672;46.096;14.470;2023-01-28T03:11:54;-1.39;95.71
67868;SHT31;54672;46.096;14.470;2023-01-28T03:14:39;-1.27;95.75
67868;SHT31;54672;46.096;14.470;2023-01-28T03:17:36;-1.19;95.32
67868;SHT31;54672;46.096;14.470;2023-01-28T03:20:24;-1.13;95.12
67868;SHT31;54672;46.096;14.470;2023-01-28T03:23:13;-1.06;94.95
67868;SHT31;54672;46.096;14.470;2023-01-28T03:26:00;-1.04;94.86
67868;SHT31;54672;46.096;14.470;2023-01-28T03:28:47;-1.13;94.77
67868;SHT31;54672;46.096;14.470;2023-01-28T03:31:32;-1.14;94.83
67868;SHT31;54672;46.096;14.470;2023-01-28T03:34:19;-1.17;94.71
67868;SHT31;54672;46.096;14.470;2023-01-28T03:37:04;-1.20;94.89
67868;SHT31;54672;46.096;14.470;2023-01-28T03:39:30;-1.33;95.48
67868;SHT31;54672;46.096;14.470;2023-01-28T03:42:05;-1.51;95.97
67868;SHT31;54672;46.096;14.470;2023-01-28T03:44:31;-1.62;96.43
67868;SHT31;54672;46.096;14.470;2023-01-28T03:47:16;-1.70;96.70
67868;SHT31;54672;46.096;14.470;2023-01-28T03:49:44;-1.72;96.96
67868;SHT31;54672;46.096;14.470;2023-01-28T03:52:11;-1.64;97.03
67868;SHT31;54672;46.096;14.470;2023-01-28T03:54:37;-1.57;96.80
67868;SHT31;54672;46.096;14.470;2023-01-28T03:57:03;-1.54;96.54
67868;SHT31;54672;46.096;14.470;2023-01-28T03:59:30;-1.44;96.46
67868;SHT31;54672;46.096;14.470;2023-01-28T04:01:56;-1.40;96.11
67868;SHT31;54672;46.096;14.470;2023-01-28T04:04:21;-1.30;95.80
67868;SHT31;54672;46.096;14.470;2023-01-28T04:06:52;-1.48;95.72
67868;SHT31;54672;46.096;14.470;2023-01-28T04:09:19;-1.68;96.58
67868;SHT31;54672;46.096;14.470;2023-01-28T04:11:45;-1.65;96.78
67868;SHT31;54672;46.096;14.470;2023-01-28T04:14:10;-1.57;96.48
67868;SHT31;54672;46.096;14.470;2023-01-28T04:16:36;-1.52;96.18
67868;SHT31;54672;46.096;14.470;2023-01-28T04:19:01;-1.58;96.45
67868;SHT31;54672;46.096;14.470;2023-01-28T04:21:27;-1.67;96.62
67868;SHT31;54672;46.096;14.470;2023-01-28T04:23:52;-1.62;96.50
67868;SHT31;54672;46.096;14.470;2023-01-28T04:26:17;-1.60;96.43
67868;SHT31;54672;46.096;14.470;2023-01-28T04:28:43;-1.75;96.73
67868;SHT31;54672;46.096;14.470;2023-01-28T04:31:08;-1.96;97.52
67868;SHT31;54672;46.096;14.470;2023-01-28T04:33:34;-2.02;98.20
67868;SHT31;54672;46.096;14.470;2023-01-28T04:35:59;-1.92;97.94
67868;SHT31;54672;46.096;14.470;2023-01-28T04:38:25;-1.83;97.74
67868;SHT31;54672;46.096;14.470;2023-01-28T04:40:51;-1.93;97.45
67868;SHT31;54672;46.096;14.470;2023-01-28T04:43:17;-2.05;97.98
67868;SHT31;54672;46.096;14.470;2023-01-28T04:45:42;-2.07;98.16
67868;SHT31;54672;46.096;14.470;2023-01-28T04:48:08;-2.07;98.35
67868;SHT31;54672;46.096;14.470;2023-01-28T04:50:33;-2.05;98.19
67868;SHT31;54672;46.096;14.470;2023-01-28T04:52:59;-2.03;98.09
67868;SHT31;54672;46.096;14.470;2023-01-28T04:55:24;-2.01;97.86
67868;SHT31;54672;46.096;14.470;2023-01-28T04:57:49;-2.02;97.76
67868;SHT31;54672;46.096;14.470;2023-01-28T05:00:15;-2.01;97.80
67868;SHT31;54672;46.096;14.470;2023-01-28T05:02:41;-1.95;97.56
67868;SHT31;54672;46.096;14.470;2023-01-28T05:05:06;-1.86;97.36
67868;SHT31;54672;46.096;14.470;2023-01-28T05:07:34;-1.85;97.19
67868;SHT31;54672;46.096;14.470;2023-01-28T05:09:59;-1.75;97.00
67868;SHT31;54672;46.096;14.470;2023-01-28T05:12:25;-1.70;96.67
67868;SHT31;54672;46.096;14.470;2023-01-28T05:14:50;-1.70;96.48
67868;SHT31;54672;46.096;14.470;2023-01-28T05:17:16;-1.81;96.48
67868;SHT31;54672;46.096;14.470;2023-01-28T05:19:41;-1.83;97.01
67868;SHT31;54672;46.096;14.470;2023-01-28T05:22:08;-1.83;97.10
67868;SHT31;54672;46.096;14.470;2023-01-28T05:24:33;-1.82;97.20
67868;SHT31;54672;46.096;14.470;2023-01-28T05:26:59;-1.89;97.44
67868;SHT31;54672;46.096;14.470;2023-01-28T05:29:24;-1.83;97.32
67868;SHT31;54672;46.096;14.470;2023-01-28T05:31:49;-1.77;97.11
67868;SHT31;54672;46.096;14.470;2023-01-28T05:34:15;-1.68;96.88
67868;SHT31;54672;46.096;14.470;2023-01-28T05:36:40;-1.58;96.50
67868;SHT31;54672;46.096;14.470;2023-01-28T05:39:06;-1.54;96.35
67868;SHT31;54672;46.096;14.470;2023-01-28T05:41:32;-1.41;96.07
67868;SHT31;54672;46.096;14.470;2023-01-28T05:43:58;-1.34;95.65
67868;SHT31;54672;46.096;14.470;2023-01-28T05:46:23;-1.27;95.17
67868;SHT31;54672;46.096;14.470;2023-01-28T05:48:51;-1.21;94.93
67868;SHT31;54672;46.096;14.470;2023-01-28T05:51:17;-1.19;94.56
67868;SHT31;54672;46.096;14.470;2023-01-28T05:53:42;-1.21;94.49
67868;SHT31;54672;46.096;14.470;2023-01-28T05:56:07;-1.14;94.49
67868;SHT31;54672;46.096;14.470;2023-01-28T05:58:33;-1.13;94.26
67868;SHT31;54672;46.096;14.470;2023-01-28T06:00:58;-1.10;94.25
67868;SHT31;54672;46.096;14.470;2023-01-28T06:03:24;-1.06;94.25
67868;SHT31;54672;46.096;14.470;2023-01-28T06:05:49;-1.01;94.09
67868;SHT31;54672;46.096;14.470;2023-01-28T06:08:15;-1.00;93.64
67868;SHT31;54672;46.096;14.470;2023-01-28T06:10:40;-1.19;93.95
67868;SHT31;54672;46.096;14.470;2023-01-28T06:13:06;-1.37;94.41
67868;SHT31;54672;46.096;14.470;2023-01-28T06:15:31;-1.37;94.74
67868;SHT31;54672;46.096;14.470;2023-01-28T06:17:57;-1.40;95.25
67868;SHT31;54672;46.096;14.470;2023-01-28T06:20:23;-1.48;95.24
67868;SHT31;54672;46.096;14.470;2023-01-28T06:22:50;-1.54;95.58
67868;SHT31;54672;46.096;14.470;2023-01-28T06:25:16;-1.51;95.41
67868;SHT31;54672;46.096;14.470;2023-01-28T06:27:41;-1.50;95.28
67868;SHT31;54672;46.096;14.470;2023-01-28T06:30:07;-1.55;95.52
67868;SHT31;54672;46.096;14.470;2023-01-28T06:32:33;-1.55;95.73
67868;SHT31;54672;46.096;14.470;2023-01-28T06:34:58;-1.46;95.78
67868;SHT31;54672;46.096;14.470;2023-01-28T06:37:24;-1.40;95.32
67868;SHT31;54672;46.096;14.470;2023-01-28T06:39:50;-1.48;95.63
67868;SHT31;54672;46.096;14.470;2023-01-28T06:42:15;-1.48;95.53
67868;SHT31;54672;46.096;14.470;2023-01-28T06:44:41;-1.51;95.58
67868;SHT31;54672;46.096;14.470;2023-01-28T06:47:06;-1.57;95.84
67868;SHT31;54672;46.096;14.470;2023-01-28T06:49:33;-1.57;96.08
67868;SHT31;54672;46.096;14.470;2023-01-28T06:51:58;-1.52;96.34
67868;SHT31;54672;46.096;14.470;2023-01-28T06:54:24;-1.61;96.47
67868;SHT31;54672;46.096;14.470;2023-01-28T06:56:49;-1.62;96.67
67868;SHT31;54672;46.096;14.470;2023-01-28T06:59:15;-1.54;96.96
67868;SHT31;54672;46.096;14.470;2023-01-28T07:01:40;-1.44;96.13
67868;SHT31;54672;46.096;14.470;2023-01-28T07:04:05;-1.40;95.79
67868;SHT31;54672;46.096;14.470;2023-01-28T07:06:31;-1.44;95.61
67868;SHT31;54672;46.096;14.470;2023-01-28T07:08:57;-1.33;95.63
67868;SHT31;54672;46.096;14.470;2023-01-28T07:11:22;-1.41;95.45
67868;SHT31;54672;46.096;14.470;2023-01-28T07:13:47;-1.44;95.83
67868;SHT31;54672;46.096;14.470;2023-01-28T07:16:13;-1.44;95.76
67868;SHT31;54672;46.096;14.470;2023-01-28T07:18:38;-1.33;95.57
67868;SHT31;54672;46.096;14.470;2023-01-28T07:21:04;-1.34;95.48
67868;SHT31;54672;46.096;14.470;2023-01-28T07:23:29;-1.34;95.63
67868;SHT31;54672;46.096;14.470;2023-01-28T07:26:00;-1.33;95.42
67868;SHT31;54672;46.096;14.470;2023-01-28T07:28:26;-1.33;95.39
67868;SHT31;54672;46.096;14.470;2023-01-28T07:30:52;-1.29;95.48
67868;SHT31;54672;46.096;14.470;2023-01-28T07:33:17;-1.39;95.70
67868;SHT31;54672;46.096;14.470;2023-01-28T07:35:44;-1.33;95.96
67868;SHT31;54672;46.096;14.470;2023-01-28T07:38:10;-1.21;95.94
67868;SHT31;54672;46.096;14.470;2023-01-28T07:40:36;-1.21;95.33
67868;SHT31;54672;46.096;14.470;2023-01-28T07:43:02;-1.16;95.40
67868;SHT31;54672;46.096;14.470;2023-01-28T07:45:27;-0.88;94.63
67868;SHT31;54672;46.096;14.470;2023-01-28T07:48:02;-0.86;92.84
67868;SHT31;54672;46.096;14.470;2023-01-28T07:50:30;-0.68;92.73
67868;SHT31;54672;46.096;14.470;2023-01-28T07:52:56;-0.68;92.01
67868;SHT31;54672;46.096;14.470;2023-01-28T07:55:21;-0.57;92.34
67868;SHT31;54672;46.096;14.470;2023-01-28T07:57:54;-0.58;91.43
67868;SHT31;54672;46.096;14.470;2023-01-28T08:00:21;-0.44;91.47
67868;SHT31;54672;46.096;14.470;2023-01-28T08:02:47;-0.32;90.85
67868;SHT31;54672;46.096;14.470;2023-01-28T08:05:18;-0.47;91.21
67868;SHT31;54672;46.096;14.470;2023-01-28T08:07:44;-0.54;91.39
67868;SHT31;54672;46.096;14.470;2023-01-28T08:10:11;-0.70;90.93
67868;SHT31;54672;46.096;14.470;2023-01-28T08:12:37;-0.85;92.79
67868;SHT31;54672;46.096;14.470;2023-01-28T08:15:03;-0.89;93.08
67868;SHT31;54672;46.096;14.470;2023-01-28T08:17:29;-0.79;93.09
67868;SHT31;54672;46.096;14.470;2023-01-28T08:19:55;-0.88;93.24
67868;SHT31;54672;46.096;14.470;2023-01-28T08:22:24;-0.89;92.41
67868;SHT31;54672;46.096;14.470;2023-01-28T08:24:49;-0.88;92.93
67868;SHT31;54672;46.096;14.470;2023-01-28T08:27:15;-0.93;93.36
67868;SHT31;54672;46.096;14.470;2023-01-28T08:29:40;-0.97;93.78
67868;SHT31;54672;46.096;14.470;2023-01-28T08:32:08;-0.96;93.35
67868;SHT31;54672;46.096;14.470;2023-01-28T08:34:33;-0.93;93.28
67868;SHT31;54672;46.096;14.470;2023-01-28T08:36:58;-0.85;93.24
67868;SHT31;54672;46.096;14.470;2023-01-28T08:39:24;-0.72;93.40
67868;SHT31;54672;46.096;14.470;2023-01-28T08:41:49;-0.69;92.71
67868;SHT31;54672;46.096;14.470;2023-01-28T08:44:15;-0.68;93.38
67868;SHT31;54672;46.096;14.470;2023-01-28T08:46:40;-0.82;93.59
67868;SHT31;54672;46.096;14.470;2023-01-28T08:49:05;-0.68;93.60
67868;SHT31;54672;46.096;14.470;2023-01-28T08:51:31;-0.34;93.02
67868;SHT31;54672;46.096;14.470;2023-01-28T08:53:56;-0.06;92.53
67868;SHT31;54672;46.096;14.470;2023-01-28T08:56:22;0.11;91.29
67868;SHT31;54672;46.096;14.470;2023-01-28T08:58:47;0.07;90.10
67868;SHT31;54672;46.096;14.470;2023-01-28T09:01:13;-0.41;90.50
67868;SHT31;54672;46.096;14.470;2023-01-28T09:03:38;-0.44;91.40
67868;SHT31;54672;46.096;14.470;2023-01-28T09:06:04;-0.13;90.29
67868;SHT31;54672;46.096;14.470;2023-01-28T09:08:30;-0.41;90.41
67868;SHT31;54672;46.096;14.470;2023-01-28T09:10:56;-0.45;90.98
67868;SHT31;54672;46.096;14.470;2023-01-28T09:13:22;-0.31;90.72
67868;SHT31;54672;46.096;14.470;2023-01-28T09:15:48;-0.30;91.07
67868;SHT31;54672;46.096;14.470;2023-01-28T09:18:13;-0.22;91.06
67868;SHT31;54672;46.096;14.470;2023-01-28T09:20:39;-0.32;90.18
67868;SHT31;54672;46.096;14.470;2023-01-28T09:23:05;-0.31;90.81
67868;SHT31;54672;46.096;14.470;2023-01-28T09:25:31;-0.14;90.04
67868;SHT31;54672;46.096;14.470;2023-01-28T09:27:57;-0.13;89.47
67868;SHT31;54672;46.096;14.470;2023-01-28T09:30:22;0.04;89.62
67868;SHT31;54672;46.096;14.470;2023-01-28T09:32:52;0.30;89.04
67868;SHT31;54672;46.096;14.470;2023-01-28T09:35:18;0.25;87.44
67868;SHT31;54672;46.096;14.470;2023-01-28T09:37:44;0.38;87.37
67868;SHT31;54672;46.096;14.470;2023-01-28T09:40:39;0.37;87.77
67868;SHT31;54672;46.096;14.470;2023-01-28T09:45:48;0.88;81.65
67868;SHT31;54672;46.096;14.470;2023-01-28T09:48:23;0.93;82.14
67868;SHT31;54672;46.096;14.470;2023-01-28T09:50:52;1.13;80.83
67868;SHT31;54672;46.096;14.470;2023-01-28T09:53:27;0.97;80.74
67868;SHT31;54672;46.096;14.470;2023-01-28T09:56:28;0.85;81.47
67868;SHT31;54672;46.096;14.470;2023-01-28T09:58:55;0.72;81.70
67868;SHT31;54672;46.096;14.470;2023-01-28T10:01:41;0.71;82.12
67868;SHT31;54672;46.096;14.470;2023-01-28T10:04:25;0.57;82.97
67868;SHT31;54672;46.096;14.470;2023-01-28T10:07:18;0.60;82.95
67868;SHT31;54672;46.096;14.470;2023-01-28T10:09:53;0.57;82.23
67868;SHT31;54672;46.096;14.470;2023-01-28T10:17:50;0.69;82.01
67868;SHT31;54672;46.096;14.470;2023-01-28T10:20:26;0.79;81.98
67868;SHT31;54672;46.096;14.470;2023-01-28T10:23:11;0.93;81.67
67868;SHT31;54672;46.096;14.470;2023-01-28T10:25:40;0.99;81.10
67868;SHT31;54672;46.096;14.470;2023-01-28T10:28:29;1.13;81.27
67868;SHT31;54672;46.096;14.470;2023-01-28T10:30:55;1.31;80.36
67868;SHT31;54672;46.096;14.470;2023-01-28T10:33:30;1.47;79.90
67868;SHT31;54672;46.096;14.470;2023-01-28T10:35:59;1.46;79.88
67868;SHT31;54672;46.096;14.470;2023-01-28T10:38:26;1.31;80.40
67868;SHT31;54672;46.096;14.470;2023-01-28T10:40:54;1.47;79.88
67868;SHT31;54672;46.096;14.470;2023-01-28T10:43:24;1.48;80.33
67868;SHT31;54672;46.096;14.470;2023-01-28T10:48:23;1.27;80.74
67868;SHT31;54672;46.096;14.470;2023-01-28T10:50:56;1.37;80.66
67868;SHT31;54672;46.096;14.470;2023-01-28T10:53:42;1.10;81.39
67868;SHT31;54672;46.096;14.470;2023-01-28T10:56:16;1.29;81.65
67868;SHT31;54672;46.096;14.470;2023-01-28T10:58:59;0.97;82.41
67868;SHT31;54672;46.096;14.470;2023-01-28T11:01:49;1.17;81.83
67868;SHT31;54672;46.096;14.470;2023-01-28T11:04:31;1.29;81.28
67868;SHT31;54672;46.096;14.470;2023-01-28T11:07:00;1.34;81.27
67868;SHT31;54672;46.096;14.470;2023-01-28T11:09:31;1.36;81.53
67868;SHT31;54672;46.096;14.470;2023-01-28T11:12:08;1.29;82.30
67868;SHT31;54672;46.096;14.470;2023-01-28T11:14:34;1.17;81.67
67868;SHT31;54672;46.096;14.470;2023-01-28T11:17:00;1.12;81.98
67868;SHT31;54672;46.096;14.470;2023-01-28T11:19:33;1.12;81.86
67868;SHT31;54672;46.096;14.470;2023-01-28T11:21:59;1.02;82.08
67868;SHT31;54672;46.096;14.470;2023-01-28T11:24:27;1.13;82.27
67868;SHT31;54672;46.096;14.470;2023-01-28T11:26:55;1.04;82.70
67868;SHT31;54672;46.096;14.470;2023-01-28T11:29:30;1.24;82.25
67868;SHT31;54672;46.096;14.470;2023-01-28T11:31:57;1.06;82.88
67868;SHT31;54672;46.096;14.470;2023-01-28T11:34:29;0.66;84.15
67868;SHT31;54672;46.096;14.470;2023-01-28T11:37:11;0.73;84.23
67868;SHT31;54672;46.096;14.470;2023-01-28T11:39:37;0.57;84.10
67868;SHT31;54672;46.096;14.470;2023-01-28T11:44:39;0.55;85.00
67868;SHT31;54672;46.096;14.470;2023-01-28T11:56:08;1.33;82.84
67868;SHT31;54672;46.096;14.470;2023-01-28T11:58:40;1.41;81.81
67868;SHT31;54672;46.096;14.470;2023-01-28T12:03:54;1.65;81.01
67868;SHT31;54672;46.096;14.470;2023-01-28T12:17:58;1.02;82.88
67868;SHT31;54672;46.096;14.470;2023-01-28T12:42:41;1.65;80.66
67868;SHT31;54672;46.096;14.470;2023-01-28T12:45:20;1.70;79.82
67868;SHT31;54672;46.096;14.470;2023-01-28T12:48:03;1.53;80.87
67868;SHT31;54672;46.096;14.470;2023-01-28T12:50:36;1.61;80.58
67868;SHT31;54672;46.096;14.470;2023-01-28T12:55:47;1.57;81.00
67868;SHT31;54672;46.096;14.470;2023-01-28T12:58:19;1.62;80.98
67868;SHT31;54672;46.096;14.470;2023-01-28T13:00:49;1.65;80.68
67868;SHT31;54672;46.096;14.470;2023-01-28T13:03:20;1.78;79.89
67868;SHT31;54672;46.096;14.470;2023-01-28T13:05:51;1.77;79.74
67868;SHT31;54672;46.096;14.470;2023-01-28T13:08:23;1.64;80.29
67868;SHT31;54672;46.096;14.470;2023-01-28T13:10:50;1.81;79.80
67868;SHT31;54672;46.096;14.470;2023-01-28T13:15:43;1.23;80.59
67868;SHT31;54672;46.096;14.470;2023-01-28T13:18:33;1.64;79.93
67868;SHT31;54672;46.096;14.470;2023-01-28T13:31:42;2.08;77.51
67868;SHT31;54672;46.096;14.470;2023-01-28T13:37:02;1.68;78.23
67868;SHT31;54672;46.096;14.470;2023-01-28T13:39:28;1.50;79.32
67868;SHT31;54672;46.096;14.470;2023-01-28T13:42:22;1.57;79.45
67868;SHT31;54672;46.096;14.470;2023-01-28T13:44:47;1.71;78.81
67868;SHT31;54672;46.096;14.470;2023-01-28T13:47:32;1.75;77.99
67868;SHT31;54672;46.096;14.470;2023-01-28T13:50:02;1.60;78.94
67868;SHT31;54672;46.096;14.470;2023-01-28T13:52:31;1.61;78.95
67868;SHT31;54672;46.096;14.470;2023-01-28T13:55:06;1.55;79.40
67868;SHT31;54672;46.096;14.470;2023-01-28T14:11:57;1.44;79.75
67868;SHT31;54672;46.096;14.470;2023-01-28T14:19:31;1.62;79.88
67868;SHT31;54672;46.096;14.470;2023-01-28T14:21:57;1.68;79.39
67868;SHT31;54672;46.096;14.470;2023-01-28T14:24:23;1.67;78.94
67868;SHT31;54672;46.096;14.470;2023-01-28T14:27:28;1.68;79.46
67868;SHT31;54672;46.096;14.470;2023-01-28T14:30:17;1.67;79.33
67868;SHT31;54672;46.096;14.470;2023-01-28T14:32:46;1.54;80.30
67868;SHT31;54672;46.096;14.470;2023-01-28T14:37:55;1.60;80.78
67868;SHT31;54672;46.096;14.470;2023-01-28T14:40:21;1.67;79.46
67868;SHT31;54672;46.096;14.470;2023-01-28T14:42:49;1.65;79.30
67868;SHT31;54672;46.096;14.470;2023-01-28T14:55:49;1.46;79.83
67868;SHT31;54672;46.096;14.470;2023-01-28T14:58:45;1.46;80.15
67868;SHT31;54672;46.096;14.470;2023-01-28T15:01:24;1.48;80.47
67868;SHT31;54672;46.096;14.470;2023-01-28T15:03:51;1.47;80.06
67868;SHT31;54672;46.096;14.470;2023-01-28T15:06:19;1.51;79.13
67868;SHT31;54672;46.096;14.470;2023-01-28T15:08:45;1.58;78.97
67868;SHT31;54672;46.096;14.470;2023-01-28T15:11:14;1.58;78.76
67868;SHT31;54672;46.096;14.470;2023-01-28T15:13:52;1.57;79.11
67868;SHT31;54672;46.096;14.470;2023-01-28T15:16:25;1.54;79.28
67868;SHT31;54672;46.096;14.470;2023-01-28T15:19:00;1.54;79.37
67868;SHT31;54672;46.096;14.470;2023-01-28T15:21:27;1.55;79.22
67868;SHT31;54672;46.096;14.470;2023-01-28T15:23:57;1.57;79.64
67868;SHT31;54672;46.096;14.470;2023-01-28T15:26:29;1.46;79.83
67868;SHT31;54672;46.096;14.470;2023-01-28T15:28:55;1.48;79.92
67868;SHT31;54672;46.096;14.470;2023-01-28T15:31:27;1.47;80.10
67868;SHT31;54672;46.096;14.470;2023-01-28T15:34:11;1.44;80.05
67868;SHT31;54672;46.096;14.470;2023-01-28T15:36:37;1.26;80.87
67868;SHT31;54672;46.096;14.470;2023-01-28T15:39:03;1.15;80.86
67868;SHT31;54672;46.096;14.470;2023-01-28T15:41:35;1.15;80.69
67868;SHT31;54672;46.096;14.470;2023-01-28T15:44:03;1.23;80.57
67868;SHT31;54672;46.096;14.470;2023-01-28T15:46:28;1.27;80.47
67868;SHT31;54672;46.096;14.470;2023-01-28T15:48:58;1.19;80.93
67868;SHT31;54672;46.096;14.470;2023-01-28T15:51:31;1.16;81.18
67868;SHT31;54672;46.096;14.470;2023-01-28T15:54:02;1.13;81.41
67868;SHT31;54672;46.096;14.470;2023-01-28T15:56:29;0.99;82.05
67868;SHT31;54672;46.096;14.470;2023-01-28T15:58:55;0.91;81.73
67868;SHT31;54672;46.096;14.470;2023-01-28T16:01:21;0.91;81.91
67868;SHT31;54672;46.096;14.470;2023-01-28T16:04:01;0.91;81.92
67868;SHT31;54672;46.096;14.470;2023-01-28T16:06:45;0.85;82.10
67868;SHT31;54672;46.096;14.470;2023-01-28T16:09:29;0.91;82.35
67868;SHT31;54672;46.096;14.470;2023-01-28T16:12:03;0.85;83.10
67868;SHT31;54672;46.096;14.470;2023-01-28T16:14:48;0.82;82.59
67868;SHT31;54672;46.096;14.470;2023-01-28T16:17:16;0.78;83.03
67868;SHT31;54672;46.096;14.470;2023-01-28T16:19:46;0.85;82.69
67868;SHT31;54672;46.096;14.470;2023-01-28T16:22:21;0.88;82.76
67868;SHT31;54672;46.096;14.470;2023-01-28T16:24:52;0.79;82.41
67868;SHT31;54672;46.096;14.470;2023-01-28T16:27:26;0.75;83.64
67868;SHT31;54672;46.096;14.470;2023-01-28T16:29:52;0.68;84.30
67868;SHT31;54672;46.096;14.470;2023-01-28T16:32:37;0.65;84.27
67868;SHT31;54672;46.096;14.470;2023-01-28T16:35:30;0.73;84.22
67868;SHT31;54672;46.096;14.470;2023-01-28T16:37:55;0.88;83.44
67868;SHT31;54672;46.096;14.470;2023-01-28T16:40:22;0.96;82.34
67868;SHT31;54672;46.096;14.470;2023-01-28T16:42:48;0.96;82.47
67868;SHT31;54672;46.096;14.470;2023-01-28T16:45:19;0.99;82.55
67868;SHT31;54672;46.096;14.470;2023-01-28T16:47:45;0.86;82.94
67868;SHT31;54672;46.096;14.470;2023-01-28T16:50:12;0.91;82.97
67868;SHT31;54672;46.096;14.470;2023-01-28T16:52:39;0.93;83.12
67868;SHT31;54672;46.096;14.470;2023-01-28T16:55:09;1.04;82.59
67868;SHT31;54672;46.096;14.470;2023-01-28T16:57:36;1.06;82.02
67868;SHT31;54672;46.096;14.470;2023-01-28T17:00:02;0.97;82.61
67868;SHT31;54672;46.096;14.470;2023-01-28T17:02:27;0.92;82.68
67868;SHT31;54672;46.096;14.470;2023-01-28T17:04:53;0.99;82.62
67868;SHT31;54672;46.096;14.470;2023-01-28T17:07:18;0.93;82.94
67868;SHT31;54672;46.096;14.470;2023-01-28T17:09:43;1.06;82.37
67868;SHT31;54672;46.096;14.470;2023-01-28T17:12:09;1.07;81.86
67868;SHT31;54672;46.096;14.470;2023-01-28T17:14:34;0.99;82.36
67868;SHT31;54672;46.096;14.470;2023-01-28T17:17:00;1.04;82.26
67868;SHT31;54672;46.096;14.470;2023-01-28T17:19:25;1.13;81.47
67868;SHT31;54672;46.096;14.470;2023-01-28T17:21:51;1.06;81.92
67868;SHT31;54672;46.096;14.470;2023-01-28T17:24:16;1.07;81.91
67868;SHT31;54672;46.096;14.470;2023-01-28T17:26:42;1.03;82.36
67868;SHT31;54672;46.096;14.470;2023-01-28T17:29:07;0.96;82.62
67868;SHT31;54672;46.096;14.470;2023-01-28T17:31:33;0.88;82.68
67868;SHT31;54672;46.096;14.470;2023-01-28T17:33:59;0.85;82.86
67868;SHT31;54672;46.096;14.470;2023-01-28T17:36:26;0.92;82.91
67868;SHT31;54672;46.096;14.470;2023-01-28T17:38:52;0.86;83.16
67868;SHT31;54672;46.096;14.470;2023-01-28T17:41:18;0.89;83.13
67868;SHT31;54672;46.096;14.470;2023-01-28T17:43:49;0.66;84.37
67868;SHT31;54672;46.096;14.470;2023-01-28T17:46:15;0.69;84.35